createdAt,value
2022-10-26T00:02:29.729Z,0.00
2022-10-26T00:07:29.812Z,0.00
2022-10-26T00:12:29.654Z,0.00
2022-10-26T00:17:29.451Z,0.00
2022-10-26T00:22:29.420Z,0.00
2022-10-26T00:27:29.516Z,0.00
2022-10-26T00:32:29.416Z,0.00
2022-10-26T00:37:29.305Z,0.00
2022-10-26T00:42:29.199Z,0.00
2022-10-26T00:47:29.190Z,0.00
2022-10-26T00:52:29.087Z,0.00
2022-10-26T00:57:29.052Z,0.00
2022-10-26T01:02:29.098Z,0.00
2022-10-26T01:07:28.918Z,0.00
2022-10-26T01:12:28.991Z,0.00
2022-10-26T01:17:28.831Z,0.00
2022-10-26T01:22:30.857Z,0.00
2022-10-26T01:27:28.699Z,0.00
2022-10-26T01:32:28.616Z,0.00
2022-10-26T01:37:28.553Z,0.00
2022-10-26T01:42:28.487Z,0.00
2022-10-26T01:47:28.548Z,0.00
2022-10-26T01:52:28.490Z,0.00
2022-10-26T01:57:28.447Z,0.00
2022-10-26T02:02:29.297Z,0.00
2022-10-26T02:07:28.194Z,0.00
2022-10-26T02:12:28.150Z,0.00
2022-10-26T02:17:28.184Z,0.00
2022-10-26T02:22:28.064Z,0.00
2022-10-26T02:27:28.021Z,0.00
2022-10-26T02:32:28.006Z,0.00
2022-10-26T02:37:27.982Z,0.00
2022-10-26T02:42:27.820Z,0.00
2022-10-26T02:47:27.831Z,0.00
2022-10-26T02:52:27.738Z,0.00
2022-10-26T02:57:27.689Z,0.00
2022-10-26T03:02:27.600Z,0.00
2022-10-26T03:07:27.530Z,0.00
2022-10-26T03:12:27.515Z,0.00
2022-10-26T03:17:27.441Z,0.00
2022-10-26T03:22:27.411Z,0.00
2022-10-26T03:27:27.328Z,0.00
2022-10-26T03:32:27.268Z,0.00
2022-10-26T03:37:27.207Z,0.00
2022-10-26T03:42:27.237Z,0.00
2022-10-26T03:47:27.087Z,0.00
2022-10-26T03:52:27.117Z,0.00
2022-10-26T03:57:27.091Z,0.00
2022-10-26T04:02:26.987Z,0.00
2022-10-26T04:07:26.971Z,0.00
2022-10-26T04:12:26.904Z,0.00
2022-10-26T04:17:27.914Z,0.00
2022-10-26T04:22:28.045Z,0.00
2022-10-26T04:27:26.722Z,0.00
2022-10-26T04:32:26.602Z,0.00
2022-10-26T04:37:26.543Z,0.00
2022-10-26T04:42:26.500Z,0.00
2022-10-26T04:47:26.435Z,0.00
2022-10-26T04:52:26.385Z,0.00
2022-10-26T04:57:26.321Z,0.00
2022-10-26T05:02:26.420Z,0.00
2022-10-26T05:07:26.398Z,0.00
2022-10-26T05:12:26.201Z,0.00
2022-10-26T05:17:27.121Z,0.00
2022-10-26T05:22:26.070Z,0.00
2022-10-26T05:27:26.087Z,0.00
2022-10-26T05:32:26.019Z,0.00
2022-10-26T05:37:25.880Z,0.00
2022-10-26T05:42:25.831Z,4.00
2022-10-26T05:47:25.883Z,8.00
2022-10-26T05:52:25.709Z,16.00
2022-10-26T05:57:25.659Z,36.00
2022-10-26T06:02:25.758Z,76.00
2022-10-26T06:07:26.602Z,136.00
2022-10-26T06:12:27.594Z,232.00
2022-10-26T06:17:25.673Z,320.00
2022-10-26T06:22:25.697Z,396.00
2022-10-26T06:27:29.671Z,560.00
2022-10-26T06:32:25.367Z,772.00
2022-10-26T06:37:25.324Z,728.00
2022-10-26T06:42:25.794Z,808.00
2022-10-26T06:47:25.169Z,968.00
2022-10-26T06:52:26.255Z,1260.00
2022-10-26T06:57:25.344Z,1504.00
2022-10-26T07:02:25.844Z,1516.00
2022-10-26T07:07:51.540Z,2216.00
2022-10-26T07:12:25.463Z,2500.00
2022-10-26T07:17:24.903Z,2992.00
2022-10-26T07:22:24.829Z,4264.00
2022-10-26T07:27:24.646Z,5136.00
2022-10-26T07:32:24.614Z,4832.00
2022-10-26T07:37:24.577Z,4228.00
2022-10-26T07:42:24.498Z,4720.00
2022-10-26T07:47:24.564Z,6356.00
2022-10-26T07:52:24.392Z,7020.00
2022-10-26T07:57:24.417Z,7728.00
2022-10-26T08:02:24.381Z,7016.00
2022-10-26T08:07:24.266Z,5364.00
2022-10-26T08:12:24.186Z,8956.00
2022-10-26T08:17:24.161Z,19392.00
2022-10-26T08:22:24.095Z,18272.00
2022-10-26T08:27:24.014Z,12492.00
2022-10-26T08:32:23.959Z,12064.00
2022-10-26T08:37:23.895Z,10852.00
2022-10-26T08:42:23.906Z,18016.00
2022-10-26T08:47:23.991Z,19424.00
2022-10-26T08:52:23.790Z,14976.00
2022-10-26T08:57:23.770Z,14824.00
2022-10-26T09:02:23.709Z,17952.00
2022-10-26T09:07:23.642Z,15904.00
2022-10-26T09:12:23.500Z,16640.00
2022-10-26T09:17:25.449Z,17472.00
2022-10-26T09:22:23.389Z,15100.00
2022-10-26T09:27:23.348Z,22784.00
2022-10-26T09:32:23.283Z,9372.00
2022-10-26T09:37:23.286Z,9680.00
2022-10-26T09:42:23.243Z,14456.00
2022-10-26T09:47:23.159Z,13352.00
2022-10-26T09:52:23.094Z,14268.00
2022-10-26T09:57:25.090Z,24832.00
2022-10-26T10:02:23.045Z,21792.00
2022-10-26T10:07:22.945Z,20768.00
2022-10-26T10:12:23.024Z,13428.00
2022-10-26T10:17:22.807Z,12748.00
2022-10-26T10:22:22.774Z,12592.00
2022-10-26T10:27:22.755Z,12428.00
2022-10-26T10:32:26.078Z,12336.00
2022-10-26T10:37:22.637Z,12592.00
2022-10-26T10:42:22.586Z,12672.00
2022-10-26T10:47:22.532Z,12960.00
2022-10-26T10:52:26.940Z,12992.00
2022-10-26T10:57:22.472Z,13036.00
2022-10-26T11:02:22.449Z,13320.00
2022-10-26T11:07:22.212Z,13684.00
2022-10-26T11:12:22.219Z,13320.00
2022-10-26T11:17:22.138Z,12220.00
2022-10-26T11:22:22.091Z,12468.00
2022-10-26T11:27:22.032Z,12960.00
2022-10-26T11:32:21.987Z,12848.00
2022-10-26T11:37:29.887Z,12564.00
2022-10-26T11:42:21.865Z,13952.00
2022-10-26T11:47:21.784Z,13768.00
2022-10-26T11:52:21.740Z,14360.00
2022-10-26T11:57:21.676Z,8040.00
2022-10-26T12:02:21.721Z,7704.00
2022-10-26T12:07:21.661Z,7124.00
2022-10-26T12:12:21.596Z,8196.00
2022-10-26T12:17:26.964Z,8416.00
2022-10-26T12:22:29.397Z,8592.00
2022-10-26T12:27:24.560Z,8576.00
2022-10-26T12:32:21.305Z,8592.00
2022-10-26T12:37:21.261Z,8372.00
2022-10-26T12:42:21.180Z,8396.00
2022-10-26T12:47:21.122Z,8132.00
2022-10-26T12:52:21.105Z,8044.00
2022-10-26T12:57:21.043Z,7928.00
2022-10-26T13:02:20.997Z,8028.00
2022-10-26T13:07:20.925Z,10040.00
2022-10-26T13:12:29.775Z,9248.00
2022-10-26T13:17:20.889Z,8388.00
2022-10-26T13:22:20.737Z,7760.00
2022-10-26T13:27:20.714Z,7712.00
2022-10-26T13:32:20.652Z,7392.00
2022-10-26T13:37:20.659Z,7084.00
2022-10-26T13:42:20.634Z,6952.00
2022-10-26T13:47:20.589Z,6796.00
2022-10-26T13:52:20.496Z,6512.00
2022-10-26T13:57:20.365Z,6104.00
2022-10-26T14:02:20.344Z,5728.00
2022-10-26T14:07:20.262Z,5512.00
2022-10-26T14:12:20.261Z,5572.00
2022-10-26T14:17:20.147Z,5744.00
2022-10-26T14:22:23.074Z,5636.00
2022-10-26T14:27:20.032Z,5052.00
2022-10-26T14:32:20.015Z,4700.00
2022-10-26T14:37:19.914Z,4568.00
2022-10-26T14:42:19.886Z,4480.00
2022-10-26T14:47:19.827Z,4372.00
2022-10-26T14:52:19.754Z,4204.00
2022-10-26T14:57:19.798Z,3964.00
2022-10-26T15:02:19.824Z,3584.00
2022-10-26T15:07:19.689Z,3348.00
2022-10-26T15:12:19.576Z,3132.00
2022-10-26T15:17:19.485Z,2992.00
2022-10-26T15:22:19.419Z,2904.00
2022-10-26T15:27:19.365Z,2708.00
2022-10-26T15:32:19.308Z,2444.00
2022-10-26T15:37:19.380Z,2108.00
2022-10-26T15:42:19.277Z,1824.00
2022-10-26T15:47:19.241Z,1556.00
2022-10-26T15:52:19.157Z,1284.00
2022-10-26T15:57:21.390Z,1040.00
2022-10-26T16:02:19.090Z,796.00
2022-10-26T16:07:18.928Z,548.00
2022-10-26T16:12:18.938Z,348.00
2022-10-26T16:17:18.800Z,228.00
2022-10-26T16:22:18.753Z,136.00
2022-10-26T16:27:18.789Z,76.00
2022-10-26T16:32:18.718Z,32.00
2022-10-26T16:37:18.639Z,16.00
2022-10-26T16:42:18.602Z,4.00
2022-10-26T16:47:18.533Z,4.00
2022-10-26T16:52:18.442Z,0.00
2022-10-26T16:57:18.390Z,0.00
2022-10-26T17:02:18.507Z,0.00
2022-10-26T17:07:18.359Z,0.00
2022-10-26T17:12:19.324Z,0.00
2022-10-26T17:17:18.144Z,0.00
2022-10-26T17:22:18.080Z,0.00
2022-10-26T17:27:18.032Z,0.00
2022-10-26T17:32:17.989Z,0.00
2022-10-26T17:37:18.015Z,0.00
2022-10-26T17:42:17.849Z,0.00
2022-10-26T17:47:17.812Z,0.00
2022-10-26T17:52:17.849Z,0.00
2022-10-26T17:57:17.805Z,0.00
2022-10-26T18:02:17.942Z,0.00
2022-10-26T18:07:18.630Z,0.00
2022-10-26T18:12:17.525Z,0.00
2022-10-26T18:17:17.510Z,0.00
2022-10-26T18:22:17.417Z,0.00
2022-10-26T18:27:17.350Z,0.00
2022-10-26T18:32:17.340Z,0.00
2022-10-26T18:37:17.250Z,0.00
2022-10-26T18:42:17.311Z,0.00
2022-10-26T18:47:17.252Z,0.00
2022-10-26T18:52:17.080Z,0.00
2022-10-26T18:57:17.098Z,0.00
2022-10-26T19:02:16.969Z,0.00
2022-10-26T19:07:16.918Z,0.00
2022-10-26T19:12:16.867Z,0.00
2022-10-26T19:17:16.826Z,0.00
2022-10-26T19:22:16.761Z,0.00
2022-10-26T19:32:26.522Z,0.00
2022-10-26T19:37:16.683Z,0.00
2022-10-26T19:42:16.636Z,0.00
2022-10-26T19:47:16.469Z,0.00
2022-10-26T19:57:16.438Z,0.00
2022-10-26T20:02:16.371Z,0.00
2022-10-26T20:07:16.375Z,0.00
2022-10-26T20:12:16.334Z,0.00
2022-10-26T20:17:16.287Z,0.00
2022-10-26T20:22:19.641Z,0.00
2022-10-26T20:27:16.174Z,0.00
2022-10-26T20:32:16.081Z,0.00
2022-10-26T20:37:16.134Z,0.00
2022-10-26T20:42:15.978Z,0.00
2022-10-26T20:47:15.998Z,0.00
2022-10-26T20:52:21.145Z,0.00
2022-10-26T20:57:17.155Z,0.00
2022-10-26T21:02:15.936Z,0.00
2022-10-26T21:07:15.999Z,0.00
2022-10-26T21:12:15.766Z,0.00
2022-10-26T21:17:15.733Z,0.00
2022-10-26T21:22:17.141Z,0.00
2022-10-26T21:27:15.624Z,0.00
2022-10-26T21:32:16.512Z,0.00
2022-10-26T21:37:15.343Z,0.00
2022-10-26T21:42:15.406Z,0.00
2022-10-26T21:47:15.569Z,0.00
2022-10-26T21:52:15.138Z,0.00
2022-10-26T21:57:15.079Z,0.00
2022-10-26T22:02:15.198Z,0.00
2022-10-26T22:07:16.108Z,0.00
2022-10-26T22:12:15.081Z,0.00
2022-10-26T22:17:15.017Z,0.00
2022-10-26T22:22:14.983Z,0.00
2022-10-26T22:27:14.897Z,0.00
2022-10-26T22:32:14.746Z,0.00
2022-10-26T22:37:14.649Z,0.00
2022-10-26T22:42:14.582Z,0.00
2022-10-26T22:47:14.558Z,0.00
2022-10-26T22:52:14.629Z,0.00
2022-10-26T22:57:14.459Z,0.00
2022-10-26T23:02:14.615Z,0.00
2022-10-26T23:07:14.385Z,0.00
2022-10-26T23:12:14.392Z,0.00
2022-10-26T23:17:14.312Z,0.00
2022-10-26T23:22:14.104Z,0.00
2022-10-26T23:27:14.096Z,0.00
2022-10-26T23:32:14.031Z,0.00
2022-10-26T23:37:13.982Z,0.00
2022-10-26T23:42:13.927Z,0.00
2022-10-26T23:47:15.141Z,0.00
2022-10-26T23:52:14.099Z,0.00
2022-10-26T23:57:13.764Z,0.00
